sensor_id;sensor_type;location;lat;lon;timestamp;temperature;humidity
666;DHT22;315;48.738;9.126;2023-07-08T00:00:39;22.40;44.20
666;DHT22;315;48.738;9.126;2023-07-08T00:03:05;22.00;44.10
666;DHT22;315;48.738;9.126;2023-07-08T00:05:30;22.00;44.50
666;DHT22;315;48.738;9.126;2023-07-08T00:07:56;22.00;44.70
666;DHT22;315;48.738;9.126;2023-07-08T00:10:27;21.90;44.70
666;DHT22;315;48.738;9.126;2023-07-08T00:12:55;21.90;44.90
666;DHT22;315;48.738;9.126;2023-07-08T00:15:27;21.80;45.20
666;DHT22;315;48.738;9.126;2023-07-08T00:17:54;21.80;45.40
666;DHT22;315;48.738;9.126;2023-07-08T00:20:57;21.80;47.80
666;DHT22;315;48.738;9.126;2023-07-08T00:23:24;21.70;47.50
666;DHT22;315;48.738;9.126;2023-07-08T00:25:49;21.60;48.70
666;DHT22;315;48.738;9.126;2023-07-08T00:28:18;21.50;50.90
666;DHT22;315;48.738;9.126;2023-07-08T00:30:44;21.40;50.00
666;DHT22;315;48.738;9.126;2023-07-08T00:33:10;21.30;49.80
666;DHT22;315;48.738;9.126;2023-07-08T00:35:43;21.20;50.90
666;DHT22;315;48.738;9.126;2023-07-08T00:38:17;21.10;50.50
666;DHT22;315;48.738;9.126;2023-07-08T00:40:51;21.10;49.90
666;DHT22;315;48.738;9.126;2023-07-08T00:43:17;21.10;49.40
666;DHT22;315;48.738;9.126;2023-07-08T00:45:49;21.10;51.50
666;DHT22;315;48.738;9.126;2023-07-08T00:48:31;21.10;51.40
666;DHT22;315;48.738;9.126;2023-07-08T00:50:58;21.10;49.30
666;DHT22;315;48.738;9.126;2023-07-08T00:53:28;21.10;50.30
666;DHT22;315;48.738;9.126;2023-07-08T00:55:57;21.10;50.60
666;DHT22;315;48.738;9.126;2023-07-08T00:58:25;21.00;52.70
666;DHT22;315;48.738;9.126;2023-07-08T01:00:51;21.00;51.60
666;DHT22;315;48.738;9.126;2023-07-08T01:03:19;21.00;53.90
666;DHT22;315;48.738;9.126;2023-07-08T01:05:46;20.90;54.90
666;DHT22;315;48.738;9.126;2023-07-08T01:08:12;20.80;55.00
666;DHT22;315;48.738;9.126;2023-07-08T01:10:49;20.70;54.30
666;DHT22;315;48.738;9.126;2023-07-08T01:13:16;20.70;55.40
666;DHT22;315;48.738;9.126;2023-07-08T01:15:44;20.60;54.50
666;DHT22;315;48.738;9.126;2023-07-08T01:18:12;20.50;53.70
666;DHT22;315;48.738;9.126;2023-07-08T01:20:42;20.50;53.80
666;DHT22;315;48.738;9.126;2023-07-08T01:23:09;20.50;54.10
666;DHT22;315;48.738;9.126;2023-07-08T01:25:35;20.50;53.90
666;DHT22;315;48.738;9.126;2023-07-08T01:28:02;20.50;53.90
666;DHT22;315;48.738;9.126;2023-07-08T01:30:28;20.40;54.30
666;DHT22;315;48.738;9.126;2023-07-08T01:33:01;20.40;54.20
666;DHT22;315;48.738;9.126;2023-07-08T01:35:27;20.30;55.00
666;DHT22;315;48.738;9.126;2023-07-08T01:37:58;20.30;55.50
666;DHT22;315;48.738;9.126;2023-07-08T01:40:31;20.20;55.80
666;DHT22;315;48.738;9.126;2023-07-08T01:42:58;20.20;55.70
666;DHT22;315;48.738;9.126;2023-07-08T01:45:26;20.20;56.20
666;DHT22;315;48.738;9.126;2023-07-08T01:47:56;20.20;55.90
666;DHT22;315;48.738;9.126;2023-07-08T01:50:25;20.20;56.50
666;DHT22;315;48.738;9.126;2023-07-08T01:52:52;20.10;56.70
666;DHT22;315;48.738;9.126;2023-07-08T01:55:25;20.10;56.90
666;DHT22;315;48.738;9.126;2023-07-08T01:57:51;20.00;58.00
666;DHT22;315;48.738;9.126;2023-07-08T02:00:18;20.00;58.10
666;DHT22;315;48.738;9.126;2023-07-08T02:02:44;20.00;58.60
666;DHT22;315;48.738;9.126;2023-07-08T02:05:09;19.90;59.70
666;DHT22;315;48.738;9.126;2023-07-08T02:07:35;19.90;59.10
666;DHT22;315;48.738;9.126;2023-07-08T02:10:00;19.90;60.70
666;DHT22;315;48.738;9.126;2023-07-08T02:12:26;19.80;62.90
666;DHT22;315;48.738;9.126;2023-07-08T02:14:51;19.70;65.10
666;DHT22;315;48.738;9.126;2023-07-08T02:17:17;19.70;66.80
666;DHT22;315;48.738;9.126;2023-07-08T02:19:43;19.60;65.80
666;DHT22;315;48.738;9.126;2023-07-08T02:22:09;19.60;66.00
666;DHT22;315;48.738;9.126;2023-07-08T02:24:35;19.60;67.00
666;DHT22;315;48.738;9.126;2023-07-08T02:27:00;19.50;66.90
666;DHT22;315;48.738;9.126;2023-07-08T02:29:26;19.50;67.00
666;DHT22;315;48.738;9.126;2023-07-08T02:31:52;19.60;65.80
666;DHT22;315;48.738;9.126;2023-07-08T02:34:17;19.60;66.00
666;DHT22;315;48.738;9.126;2023-07-08T02:36:43;19.60;68.70
666;DHT22;315;48.738;9.126;2023-07-08T02:39:09;19.60;68.10
666;DHT22;315;48.738;9.126;2023-07-08T02:41:35;19.50;67.80
666;DHT22;315;48.738;9.126;2023-07-08T02:44:01;19.60;69.50
666;DHT22;315;48.738;9.126;2023-07-08T02:46:26;19.60;68.80
666;DHT22;315;48.738;9.126;2023-07-08T02:48:52;19.60;68.10
666;DHT22;315;48.738;9.126;2023-07-08T02:51:17;19.60;67.20
666;DHT22;315;48.738;9.126;2023-07-08T02:53:43;19.60;66.50
666;DHT22;315;48.738;9.126;2023-07-08T02:56:09;19.60;67.80
666;DHT22;315;48.738;9.126;2023-07-08T02:58:35;19.60;68.50
666;DHT22;315;48.738;9.126;2023-07-08T03:01:01;19.60;65.20
666;DHT22;315;48.738;9.126;2023-07-08T03:03:27;19.60;65.40
666;DHT22;315;48.738;9.126;2023-07-08T03:06:01;19.70;65.20
666;DHT22;315;48.738;9.126;2023-07-08T03:08:28;19.80;65.00
666;DHT22;315;48.738;9.126;2023-07-08T03:10:56;19.80;64.90
666;DHT22;315;48.738;9.126;2023-07-08T03:13:23;19.80;64.60
666;DHT22;315;48.738;9.126;2023-07-08T03:15:49;19.90;64.40
666;DHT22;315;48.738;9.126;2023-07-08T03:18:15;19.90;64.90
666;DHT22;315;48.738;9.126;2023-07-08T03:20:40;19.90;64.70
666;DHT22;315;48.738;9.126;2023-07-08T03:23:06;20.00;70.70
666;DHT22;315;48.738;9.126;2023-07-08T03:25:32;19.80;71.10
666;DHT22;315;48.738;9.126;2023-07-08T03:27:57;19.70;70.40
666;DHT22;315;48.738;9.126;2023-07-08T03:30:23;19.70;70.40
666;DHT22;315;48.738;9.126;2023-07-08T03:32:49;19.70;71.80
666;DHT22;315;48.738;9.126;2023-07-08T03:35:14;19.70;75.50
666;DHT22;315;48.738;9.126;2023-07-08T03:37:41;19.70;75.50
666;DHT22;315;48.738;9.126;2023-07-08T03:40:09;19.70;73.80
666;DHT22;315;48.738;9.126;2023-07-08T03:42:35;19.60;74.50
666;DHT22;315;48.738;9.126;2023-07-08T03:45:00;19.50;77.00
666;DHT22;315;48.738;9.126;2023-07-08T03:47:26;19.40;77.70
666;DHT22;315;48.738;9.126;2023-07-08T03:49:51;19.50;77.60
666;DHT22;315;48.738;9.126;2023-07-08T03:52:17;19.50;77.30
666;DHT22;315;48.738;9.126;2023-07-08T03:54:44;19.50;76.20
666;DHT22;315;48.738;9.126;2023-07-08T03:57:10;19.60;74.90
666;DHT22;315;48.738;9.126;2023-07-08T03:59:35;19.60;73.20
666;DHT22;315;48.738;9.126;2023-07-08T04:02:01;19.80;72.10
666;DHT22;315;48.738;9.126;2023-07-08T04:04:26;19.90;72.20
666;DHT22;315;48.738;9.126;2023-07-08T04:06:52;20.00;77.60
666;DHT22;315;48.738;9.126;2023-07-08T04:09:18;20.00;80.40
666;DHT22;315;48.738;9.126;2023-07-08T04:11:44;20.00;79.70
666;DHT22;315;48.738;9.126;2023-07-08T04:14:09;20.10;77.50
666;DHT22;315;48.738;9.126;2023-07-08T04:19:15;20.30;82.90
666;DHT22;315;48.738;9.126;2023-07-08T04:21:42;20.40;80.20
666;DHT22;315;48.738;9.126;2023-07-08T04:24:13;20.50;82.00
666;DHT22;315;48.738;9.126;2023-07-08T04:26:40;20.60;78.20
666;DHT22;315;48.738;9.126;2023-07-08T04:29:13;20.80;78.00
666;DHT22;315;48.738;9.126;2023-07-08T04:31:39;20.90;78.80
666;DHT22;315;48.738;9.126;2023-07-08T04:34:04;21.10;80.50
666;DHT22;315;48.738;9.126;2023-07-08T04:36:32;21.30;81.90
666;DHT22;315;48.738;9.126;2023-07-08T04:38:57;21.40;82.10
666;DHT22;315;48.738;9.126;2023-07-08T04:41:24;21.50;81.20
666;DHT22;315;48.738;9.126;2023-07-08T04:43:52;21.60;79.70
666;DHT22;315;48.738;9.126;2023-07-08T04:46:39;21.80;80.00
666;DHT22;315;48.738;9.126;2023-07-08T04:49:07;22.00;84.00
666;DHT22;315;48.738;9.126;2023-07-08T04:51:35;21.80;69.80
666;DHT22;315;48.738;9.126;2023-07-08T04:54:01;21.80;67.20
666;DHT22;315;48.738;9.126;2023-07-08T04:56:39;21.80;65.20
666;DHT22;315;48.738;9.126;2023-07-08T04:59:07;21.90;65.60
666;DHT22;315;48.738;9.126;2023-07-08T05:01:33;21.90;63.90
666;DHT22;315;48.738;9.126;2023-07-08T05:03:59;22.10;64.70
666;DHT22;315;48.738;9.126;2023-07-08T05:06:25;22.40;63.60
666;DHT22;315;48.738;9.126;2023-07-08T05:08:50;22.70;64.00
666;DHT22;315;48.738;9.126;2023-07-08T05:11:16;23.00;65.90
666;DHT22;315;48.738;9.126;2023-07-08T05:13:41;23.20;61.80
666;DHT22;315;48.738;9.126;2023-07-08T05:16:07;23.30;61.30
666;DHT22;315;48.738;9.126;2023-07-08T05:18:32;23.50;60.00
666;DHT22;315;48.738;9.126;2023-07-08T05:20:58;23.70;59.40
666;DHT22;315;48.738;9.126;2023-07-08T05:23:23;23.90;59.00
666;DHT22;315;48.738;9.126;2023-07-08T05:25:49;24.10;57.50
666;DHT22;315;48.738;9.126;2023-07-08T05:28:15;24.20;57.30
666;DHT22;315;48.738;9.126;2023-07-08T05:30:41;24.00;55.90
666;DHT22;315;48.738;9.126;2023-07-08T05:33:07;23.80;56.00
666;DHT22;315;48.738;9.126;2023-07-08T05:35:33;23.50;56.60
666;DHT22;315;48.738;9.126;2023-07-08T05:37:58;23.40;56.80
666;DHT22;315;48.738;9.126;2023-07-08T05:40:24;23.30;57.30
666;DHT22;315;48.738;9.126;2023-07-08T05:42:50;23.40;57.50
666;DHT22;315;48.738;9.126;2023-07-08T05:45:15;23.60;57.20
666;DHT22;315;48.738;9.126;2023-07-08T05:47:41;23.80;56.10
666;DHT22;315;48.738;9.126;2023-07-08T05:50:07;23.80;56.00
666;DHT22;315;48.738;9.126;2023-07-08T05:52:32;23.90;56.30
666;DHT22;315;48.738;9.126;2023-07-08T05:54:58;24.00;55.90
666;DHT22;315;48.738;9.126;2023-07-08T05:57:23;23.90;55.90
666;DHT22;315;48.738;9.126;2023-07-08T05:59:49;23.80;56.40
666;DHT22;315;48.738;9.126;2023-07-08T06:02:16;23.80;56.50
666;DHT22;315;48.738;9.126;2023-07-08T06:04:42;23.80;56.70
666;DHT22;315;48.738;9.126;2023-07-08T06:07:08;23.80;57.00
666;DHT22;315;48.738;9.126;2023-07-08T06:09:33;23.80;57.20
666;DHT22;315;48.738;9.126;2023-07-08T06:11:59;23.80;57.10
666;DHT22;315;48.738;9.126;2023-07-08T06:14:25;23.80;57.40
666;DHT22;315;48.738;9.126;2023-07-08T06:16:50;24.00;57.50
666;DHT22;315;48.738;9.126;2023-07-08T06:19:16;24.20;57.20
666;DHT22;315;48.738;9.126;2023-07-08T06:21:42;24.50;56.60
666;DHT22;315;48.738;9.126;2023-07-08T06:24:08;24.70;56.10
666;DHT22;315;48.738;9.126;2023-07-08T06:26:34;25.10;55.50
666;DHT22;315;48.738;9.126;2023-07-08T06:28:59;25.20;55.00
666;DHT22;315;48.738;9.126;2023-07-08T06:31:25;25.20;55.10
666;DHT22;315;48.738;9.126;2023-07-08T06:33:51;25.40;55.20
666;DHT22;315;48.738;9.126;2023-07-08T06:36:16;25.40;55.00
666;DHT22;315;48.738;9.126;2023-07-08T06:38:42;25.50;54.90
666;DHT22;315;48.738;9.126;2023-07-08T06:41:07;25.30;55.40
666;DHT22;315;48.738;9.126;2023-07-08T06:43:33;25.10;56.40
666;DHT22;315;48.738;9.126;2023-07-08T06:45:58;25.20;57.10
666;DHT22;315;48.738;9.126;2023-07-08T06:48:24;25.50;56.80
666;DHT22;315;48.738;9.126;2023-07-08T06:50:50;25.80;55.80
666;DHT22;315;48.738;9.126;2023-07-08T06:53:16;26.10;55.50
666;DHT22;315;48.738;9.126;2023-07-08T06:55:44;26.60;54.30
666;DHT22;315;48.738;9.126;2023-07-08T06:58:09;26.70;54.30
666;DHT22;315;48.738;9.126;2023-07-08T07:00:35;26.50;54.30
666;DHT22;315;48.738;9.126;2023-07-08T07:03:00;26.40;54.60
666;DHT22;315;48.738;9.126;2023-07-08T07:05:26;26.30;55.10
666;DHT22;315;48.738;9.126;2023-07-08T07:07:52;26.30;55.90
666;DHT22;315;48.738;9.126;2023-07-08T07:10:18;26.30;56.00
666;DHT22;315;48.738;9.126;2023-07-08T07:12:44;26.20;56.50
666;DHT22;315;48.738;9.126;2023-07-08T07:15:09;26.10;56.70
666;DHT22;315;48.738;9.126;2023-07-08T07:17:35;25.80;57.30
666;DHT22;315;48.738;9.126;2023-07-08T07:20:01;25.70;57.70
666;DHT22;315;48.738;9.126;2023-07-08T07:22:27;25.80;58.20
666;DHT22;315;48.738;9.126;2023-07-08T07:24:54;25.80;58.30
666;DHT22;315;48.738;9.126;2023-07-08T07:27:20;26.00;58.10
666;DHT22;315;48.738;9.126;2023-07-08T07:29:48;25.90;58.40
666;DHT22;315;48.738;9.126;2023-07-08T07:32:14;25.90;58.90
666;DHT22;315;48.738;9.126;2023-07-08T07:34:40;26.10;59.00
666;DHT22;315;48.738;9.126;2023-07-08T07:37:12;26.00;58.90
666;DHT22;315;48.738;9.126;2023-07-08T07:39:38;26.10;58.80
666;DHT22;315;48.738;9.126;2023-07-08T07:42:04;26.00;58.80
666;DHT22;315;48.738;9.126;2023-07-08T07:44:30;26.10;59.20
666;DHT22;315;48.738;9.126;2023-07-08T07:46:55;26.30;58.60
666;DHT22;315;48.738;9.126;2023-07-08T07:49:21;26.40;58.70
666;DHT22;315;48.738;9.126;2023-07-08T07:51:47;26.40;57.90
666;DHT22;315;48.738;9.126;2023-07-08T07:54:14;26.70;58.40
666;DHT22;315;48.738;9.126;2023-07-08T07:56:39;26.80;57.70
666;DHT22;315;48.738;9.126;2023-07-08T07:59:05;27.20;57.60
666;DHT22;315;48.738;9.126;2023-07-08T08:01:30;27.60;56.70
666;DHT22;315;48.738;9.126;2023-07-08T08:03:56;27.70;55.70
666;DHT22;315;48.738;9.126;2023-07-08T08:06:21;27.80;55.40
666;DHT22;315;48.738;9.126;2023-07-08T08:08:47;27.90;55.50
666;DHT22;315;48.738;9.126;2023-07-08T08:11:14;27.70;55.70
666;DHT22;315;48.738;9.126;2023-07-08T08:13:40;27.70;56.00
666;DHT22;315;48.738;9.126;2023-07-08T08:16:05;27.80;56.20
666;DHT22;315;48.738;9.126;2023-07-08T08:18:31;28.10;55.60
666;DHT22;315;48.738;9.126;2023-07-08T08:20:57;28.80;54.50
666;DHT22;315;48.738;9.126;2023-07-08T08:23:22;29.30;53.60
666;DHT22;315;48.738;9.126;2023-07-08T08:25:50;29.40;52.40
666;DHT22;315;48.738;9.126;2023-07-08T08:28:15;29.00;52.60
666;DHT22;315;48.738;9.126;2023-07-08T08:30:41;28.70;52.40
666;DHT22;315;48.738;9.126;2023-07-08T08:33:06;29.00;52.80
666;DHT22;315;48.738;9.126;2023-07-08T08:35:32;29.70;51.40
666;DHT22;315;48.738;9.126;2023-07-08T08:37:57;29.50;51.60
666;DHT22;315;48.738;9.126;2023-07-08T08:40:23;29.30;51.10
666;DHT22;315;48.738;9.126;2023-07-08T08:43:02;29.00;51.30
666;DHT22;315;48.738;9.126;2023-07-08T08:45:29;28.70;51.50
666;DHT22;315;48.738;9.126;2023-07-08T08:48:00;28.60;51.70
666;DHT22;315;48.738;9.126;2023-07-08T08:50:41;28.50;51.20
666;DHT22;315;48.738;9.126;2023-07-08T08:53:12;28.60;50.80
666;DHT22;315;48.738;9.126;2023-07-08T08:55:38;28.50;51.10
666;DHT22;315;48.738;9.126;2023-07-08T08:58:27;28.90;50.20
666;DHT22;315;48.738;9.126;2023-07-08T09:01:01;29.70;48.70
666;DHT22;315;48.738;9.126;2023-07-08T09:06:21;31.10;46.20
666;DHT22;315;48.738;9.126;2023-07-08T09:08:50;31.70;44.80
666;DHT22;315;48.738;9.126;2023-07-08T09:13:49;32.50;42.30
666;DHT22;315;48.738;9.126;2023-07-08T09:19:14;32.90;41.90
666;DHT22;315;48.738;9.126;2023-07-08T09:21:53;32.00;42.10
666;DHT22;315;48.738;9.126;2023-07-08T09:24:37;31.70;42.60
666;DHT22;315;48.738;9.126;2023-07-08T09:27:04;31.20;43.40
666;DHT22;315;48.738;9.126;2023-07-08T09:29:31;31.20;43.90
666;DHT22;315;48.738;9.126;2023-07-08T09:31:58;30.80;44.30
666;DHT22;315;48.738;9.126;2023-07-08T09:34:37;30.30;44.90
666;DHT22;315;48.738;9.126;2023-07-08T09:37:29;30.30;44.70
666;DHT22;315;48.738;9.126;2023-07-08T09:39:57;30.20;45.30
666;DHT22;315;48.738;9.126;2023-07-08T09:42:36;30.80;45.50
666;DHT22;315;48.738;9.126;2023-07-08T09:45:10;31.50;44.20
666;DHT22;315;48.738;9.126;2023-07-08T09:47:37;31.00;44.30
666;DHT22;315;48.738;9.126;2023-07-08T09:50:22;31.10;44.40
666;DHT22;315;48.738;9.126;2023-07-08T09:52:51;31.00;44.10
666;DHT22;315;48.738;9.126;2023-07-08T09:55:17;31.40;44.10
666;DHT22;315;48.738;9.126;2023-07-08T09:57:48;31.60;43.60
666;DHT22;315;48.738;9.126;2023-07-08T10:00:17;32.20;42.80
666;DHT22;315;48.738;9.126;2023-07-08T10:02:53;32.50;42.80
666;DHT22;315;48.738;9.126;2023-07-08T10:05:25;32.80;42.50
666;DHT22;315;48.738;9.126;2023-07-08T10:07:55;32.40;42.50
666;DHT22;315;48.738;9.126;2023-07-08T10:10:34;32.20;42.80
666;DHT22;315;48.738;9.126;2023-07-08T10:13:02;31.50;43.90
666;DHT22;315;48.738;9.126;2023-07-08T10:15:35;31.00;43.90
666;DHT22;315;48.738;9.126;2023-07-08T10:18:02;30.40;45.30
666;DHT22;315;48.738;9.126;2023-07-08T10:20:57;29.90;46.00
666;DHT22;315;48.738;9.126;2023-07-08T10:26:30;30.30;46.40
666;DHT22;315;48.738;9.126;2023-07-08T10:29:15;30.60;46.80
666;DHT22;315;48.738;9.126;2023-07-08T10:36:57;35.10;40.40
666;DHT22;315;48.738;9.126;2023-07-08T10:45:09;36.40;38.40
666;DHT22;315;48.738;9.126;2023-07-08T10:53:41;37.00;36.30
666;DHT22;315;48.738;9.126;2023-07-08T10:56:40;37.30;36.70
666;DHT22;315;48.738;9.126;2023-07-08T10:59:38;36.50;36.20
666;DHT22;315;48.738;9.126;2023-07-08T11:02:27;36.20;36.60
666;DHT22;315;48.738;9.126;2023-07-08T11:07:43;37.50;35.70
666;DHT22;315;48.738;9.126;2023-07-08T11:13:14;38.40;34.00
666;DHT22;315;48.738;9.126;2023-07-08T11:18:53;34.60;37.50
666;DHT22;315;48.738;9.126;2023-07-08T11:21:27;33.80;38.40
666;DHT22;315;48.738;9.126;2023-07-08T11:24:13;33.20;39.60
666;DHT22;315;48.738;9.126;2023-07-08T11:26:47;33.10;39.50
666;DHT22;315;48.738;9.126;2023-07-08T11:29:25;33.40;39.50
666;DHT22;315;48.738;9.126;2023-07-08T11:31:52;32.80;39.70
666;DHT22;315;48.738;9.126;2023-07-08T11:34:19;33.40;39.90
666;DHT22;315;48.738;9.126;2023-07-08T11:36:48;34.90;38.30
666;DHT22;315;48.738;9.126;2023-07-08T11:39:38;35.40;37.60
666;DHT22;315;48.738;9.126;2023-07-08T11:42:20;35.80;37.20
666;DHT22;315;48.738;9.126;2023-07-08T11:44:53;38.20;35.70
666;DHT22;315;48.738;9.126;2023-07-08T11:47:36;39.80;33.60
666;DHT22;315;48.738;9.126;2023-07-08T11:50:03;40.90;32.10
666;DHT22;315;48.738;9.126;2023-07-08T11:52:29;40.50;31.70
666;DHT22;315;48.738;9.126;2023-07-08T11:54:59;39.40;32.00
666;DHT22;315;48.738;9.126;2023-07-08T11:57:37;37.70;33.00
666;DHT22;315;48.738;9.126;2023-07-08T12:00:18;38.40;32.80
666;DHT22;315;48.738;9.126;2023-07-08T12:03:18;39.00;32.40
666;DHT22;315;48.738;9.126;2023-07-08T12:05:44;41.00;30.70
666;DHT22;315;48.738;9.126;2023-07-08T12:08:15;41.00;30.10
666;DHT22;315;48.738;9.126;2023-07-08T12:10:51;41.80;29.90
666;DHT22;315;48.738;9.126;2023-07-08T12:13:21;41.20;29.50
666;DHT22;315;48.738;9.126;2023-07-08T12:15:48;42.20;29.10
666;DHT22;315;48.738;9.126;2023-07-08T12:20:52;42.50;28.90
666;DHT22;315;48.738;9.126;2023-07-08T12:23:20;41.60;28.70
666;DHT22;315;48.738;9.126;2023-07-08T12:25:46;41.00;28.80
666;DHT22;315;48.738;9.126;2023-07-08T12:28:13;41.70;28.30
666;DHT22;315;48.738;9.126;2023-07-08T12:30:39;42.20;28.00
666;DHT22;315;48.738;9.126;2023-07-08T12:33:12;41.60;28.30
666;DHT22;315;48.738;9.126;2023-07-08T12:35:40;43.20;27.60
666;DHT22;315;48.738;9.126;2023-07-08T12:40:43;44.20;26.80
666;DHT22;315;48.738;9.126;2023-07-08T12:43:10;45.80;25.90
666;DHT22;315;48.738;9.126;2023-07-08T12:45:36;47.10;26.10
666;DHT22;315;48.738;9.126;2023-07-08T12:48:02;46.90;26.00
666;DHT22;315;48.738;9.126;2023-07-08T12:50:28;45.60;26.10
666;DHT22;315;48.738;9.126;2023-07-08T12:52:54;42.70;27.70
666;DHT22;315;48.738;9.126;2023-07-08T12:55:19;43.90;28.10
666;DHT22;315;48.738;9.126;2023-07-08T12:57:47;44.90;28.00
666;DHT22;315;48.738;9.126;2023-07-08T13:00:26;44.60;27.80
666;DHT22;315;48.738;9.126;2023-07-08T13:02:58;44.90;28.10
666;DHT22;315;48.738;9.126;2023-07-08T13:05:26;41.80;28.40
666;DHT22;315;48.738;9.126;2023-07-08T13:07:52;41.60;29.50
666;DHT22;315;48.738;9.126;2023-07-08T13:10:22;42.70;29.10
666;DHT22;315;48.738;9.126;2023-07-08T13:12:53;42.70;28.50
666;DHT22;315;48.738;9.126;2023-07-08T13:15:24;42.50;28.50
666;DHT22;315;48.738;9.126;2023-07-08T13:17:53;43.40;28.40
666;DHT22;315;48.738;9.126;2023-07-08T13:20:20;43.00;29.00
666;DHT22;315;48.738;9.126;2023-07-08T13:22:58;43.90;27.90
666;DHT22;315;48.738;9.126;2023-07-08T13:25:29;42.40;28.10
666;DHT22;315;48.738;9.126;2023-07-08T13:27:58;41.00;29.10
666;DHT22;315;48.738;9.126;2023-07-08T13:30:27;38.90;29.60
666;DHT22;315;48.738;9.126;2023-07-08T13:32:58;39.30;30.10
666;DHT22;315;48.738;9.126;2023-07-08T13:35:36;39.50;30.00
666;DHT22;315;48.738;9.126;2023-07-08T13:38:02;38.80;30.00
666;DHT22;315;48.738;9.126;2023-07-08T13:40:29;38.70;30.80
666;DHT22;315;48.738;9.126;2023-07-08T13:42:55;38.00;30.40
666;DHT22;315;48.738;9.126;2023-07-08T13:45:27;36.20;31.70
666;DHT22;315;48.738;9.126;2023-07-08T13:48:11;35.40;32.40
666;DHT22;315;48.738;9.126;2023-07-08T13:50:46;35.40;33.00
666;DHT22;315;48.738;9.126;2023-07-08T13:56:14;35.60;32.30
666;DHT22;315;48.738;9.126;2023-07-08T13:58:45;35.20;32.30
666;DHT22;315;48.738;9.126;2023-07-08T14:01:23;34.80;32.90
666;DHT22;315;48.738;9.126;2023-07-08T14:03:50;34.30;33.10
666;DHT22;315;48.738;9.126;2023-07-08T14:06:18;33.70;33.30
666;DHT22;315;48.738;9.126;2023-07-08T14:08:44;33.60;33.80
666;DHT22;315;48.738;9.126;2023-07-08T14:11:10;33.60;33.60
666;DHT22;315;48.738;9.126;2023-07-08T14:13:36;33.40;33.80
666;DHT22;315;48.738;9.126;2023-07-08T14:16:02;33.30;34.20
666;DHT22;315;48.738;9.126;2023-07-08T14:18:30;33.30;34.80
666;DHT22;315;48.738;9.126;2023-07-08T14:20:55;33.50;34.20
666;DHT22;315;48.738;9.126;2023-07-08T14:23:21;33.20;34.40
666;DHT22;315;48.738;9.126;2023-07-08T14:25:46;32.90;35.10
666;DHT22;315;48.738;9.126;2023-07-08T14:28:12;32.70;35.30
666;DHT22;315;48.738;9.126;2023-07-08T14:30:42;32.70;35.30
666;DHT22;315;48.738;9.126;2023-07-08T14:33:12;32.40;35.60
666;DHT22;315;48.738;9.126;2023-07-08T14:35:39;32.60;36.00
666;DHT22;315;48.738;9.126;2023-07-08T14:38:12;32.80;36.30
666;DHT22;315;48.738;9.126;2023-07-08T14:40:39;32.80;36.40
666;DHT22;315;48.738;9.126;2023-07-08T14:43:30;33.00;36.30
666;DHT22;315;48.738;9.126;2023-07-08T14:45:58;33.00;36.20
666;DHT22;315;48.738;9.126;2023-07-08T14:48:26;32.80;36.50
666;DHT22;315;48.738;9.126;2023-07-08T14:50:52;32.70;36.70
666;DHT22;315;48.738;9.126;2023-07-08T14:53:18;32.40;36.70
666;DHT22;315;48.738;9.126;2023-07-08T14:55:45;32.30;36.80
666;DHT22;315;48.738;9.126;2023-07-08T14:58:24;32.20;37.00
666;DHT22;315;48.738;9.126;2023-07-08T15:00:52;32.10;37.30
666;DHT22;315;48.738;9.126;2023-07-08T15:03:18;32.30;37.30
666;DHT22;315;48.738;9.126;2023-07-08T15:05:44;32.50;37.00
666;DHT22;315;48.738;9.126;2023-07-08T15:08:09;32.50;36.90
666;DHT22;315;48.738;9.126;2023-07-08T15:10:36;32.50;36.50
666;DHT22;315;48.738;9.126;2023-07-08T15:13:02;32.50;36.80
666;DHT22;315;48.738;9.126;2023-07-08T15:15:33;32.30;37.00
666;DHT22;315;48.738;9.126;2023-07-08T15:18:01;32.50;37.30
666;DHT22;315;48.738;9.126;2023-07-08T15:20:31;32.40;37.20
666;DHT22;315;48.738;9.126;2023-07-08T15:22:57;32.40;37.40
666;DHT22;315;48.738;9.126;2023-07-08T15:25:22;32.60;37.30
666;DHT22;315;48.738;9.126;2023-07-08T15:27:53;32.90;37.00
666;DHT22;315;48.738;9.126;2023-07-08T15:30:21;32.90;36.70
666;DHT22;315;48.738;9.126;2023-07-08T15:32:48;33.10;36.00
666;DHT22;315;48.738;9.126;2023-07-08T15:35:19;33.00;35.90
666;DHT22;315;48.738;9.126;2023-07-08T15:37:45;33.00;36.20
666;DHT22;315;48.738;9.126;2023-07-08T15:40:16;32.90;36.40
666;DHT22;315;48.738;9.126;2023-07-08T15:42:43;32.70;36.80
666;DHT22;315;48.738;9.126;2023-07-08T15:47:38;32.50;36.60
666;DHT22;315;48.738;9.126;2023-07-08T15:50:10;32.40;36.70
666;DHT22;315;48.738;9.126;2023-07-08T15:52:36;32.20;37.00
666;DHT22;315;48.738;9.126;2023-07-08T15:55:01;32.20;36.90
666;DHT22;315;48.738;9.126;2023-07-08T15:57:27;32.00;36.90
666;DHT22;315;48.738;9.126;2023-07-08T15:59:53;32.00;36.90
666;DHT22;315;48.738;9.126;2023-07-08T16:02:27;32.10;37.10
666;DHT22;315;48.738;9.126;2023-07-08T16:04:53;31.90;36.80
666;DHT22;315;48.738;9.126;2023-07-08T16:07:18;31.90;37.10
666;DHT22;315;48.738;9.126;2023-07-08T16:09:44;31.80;37.20
666;DHT22;315;48.738;9.126;2023-07-08T16:12:12;31.60;37.40
666;DHT22;315;48.738;9.126;2023-07-08T16:14:39;31.50;37.40
666;DHT22;315;48.738;9.126;2023-07-08T16:17:09;31.50;37.60
666;DHT22;315;48.738;9.126;2023-07-08T16:19:35;31.40;37.60
666;DHT22;315;48.738;9.126;2023-07-08T16:22:01;31.50;37.60
666;DHT22;315;48.738;9.126;2023-07-08T16:24:27;31.50;37.80
666;DHT22;315;48.738;9.126;2023-07-08T16:26:53;31.60;37.60
666;DHT22;315;48.738;9.126;2023-07-08T16:29:19;31.60;37.50
666;DHT22;315;48.738;9.126;2023-07-08T16:31:46;31.70;37.60
666;DHT22;315;48.738;9.126;2023-07-08T16:34:13;31.70;37.90
666;DHT22;315;48.738;9.126;2023-07-08T16:36:38;31.70;38.10
666;DHT22;315;48.738;9.126;2023-07-08T16:39:04;31.70;37.80
666;DHT22;315;48.738;9.126;2023-07-08T16:41:33;31.60;37.80
666;DHT22;315;48.738;9.126;2023-07-08T16:44:01;31.60;38.40
666;DHT22;315;48.738;9.126;2023-07-08T16:46:27;31.60;38.50
666;DHT22;315;48.738;9.126;2023-07-08T16:48:52;31.50;38.60
666;DHT22;315;48.738;9.126;2023-07-08T16:51:26;31.40;38.00
666;DHT22;315;48.738;9.126;2023-07-08T16:54:09;31.40;38.00
666;DHT22;315;48.738;9.126;2023-07-08T16:56:36;31.30;37.90
666;DHT22;315;48.738;9.126;2023-07-08T16:59:01;31.30;38.10
666;DHT22;315;48.738;9.126;2023-07-08T17:01:27;31.20;37.90
666;DHT22;315;48.738;9.126;2023-07-08T17:03:54;31.20;38.30
666;DHT22;315;48.738;9.126;2023-07-08T17:06:21;31.00;38.20
666;DHT22;315;48.738;9.126;2023-07-08T17:08:47;31.00;38.50
666;DHT22;315;48.738;9.126;2023-07-08T17:11:13;31.00;39.90
666;DHT22;315;48.738;9.126;2023-07-08T17:13:39;31.00;39.60
666;DHT22;315;48.738;9.126;2023-07-08T17:16:05;31.00;39.50
666;DHT22;315;48.738;9.126;2023-07-08T17:18:35;31.00;39.30
666;DHT22;315;48.738;9.126;2023-07-08T17:21:01;31.00;39.30
666;DHT22;315;48.738;9.126;2023-07-08T17:23:27;30.90;39.10
666;DHT22;315;48.738;9.126;2023-07-08T17:25:53;30.90;39.30
666;DHT22;315;48.738;9.126;2023-07-08T17:28:18;30.80;39.00
666;DHT22;315;48.738;9.126;2023-07-08T17:30:48;30.70;40.20
666;DHT22;315;48.738;9.126;2023-07-08T17:33:16;30.60;39.20